Terminal Aerodrome Forecast
Issued by NWS

Current Version | Previous Version | Text Only | Print | Product List | Glossary On
Versions: 1 2 3 4 5 6 7 8 9 10 11 12 13 14
000
FTUS46 KMFR 111700 RRA
TAFRBG
TAF
KRBG 111753Z 1118/1218 00000KT P6SM SKC
     FM112000 01006KT P6SM VCTS SCT060CB BKN200
     FM120400 36003KT P6SM SKC=

USA.gov is the U.S. government's official web portal to all federal, state and local government web resources and services.